createdAt,value
2023-01-13T00:00:51.129Z,19.80
2023-01-13T00:01:54.387Z,18.67
2023-01-13T00:02:57.689Z,11.40
2023-01-13T00:04:01.381Z,13.82
2023-01-13T00:05:05.241Z,11.15
2023-01-13T00:06:12.357Z,11.90
2023-01-13T00:07:15.512Z,13.00
2023-01-13T00:08:18.720Z,12.35
2023-01-13T00:09:21.815Z,15.52
2023-01-13T00:10:25.120Z,15.60
2023-01-13T00:11:28.465Z,14.27
2023-01-13T00:12:31.626Z,13.35
2023-01-13T00:13:35.636Z,15.20
2023-01-13T00:14:38.856Z,12.02
2023-01-13T00:15:42.325Z,13.10
2023-01-13T00:16:45.537Z,12.90
2023-01-13T00:17:48.938Z,14.73
2023-01-13T00:18:52.091Z,10.43
2023-01-13T00:19:57.662Z,13.82
2023-01-13T00:21:06.458Z,12.15
2023-01-13T00:22:09.746Z,13.93
2023-01-13T00:23:12.934Z,11.65
2023-01-13T00:24:16.299Z,14.57
2023-01-13T00:25:19.477Z,14.27
2023-01-13T00:26:26.641Z,16.50
2023-01-13T00:27:31.661Z,13.93
2023-01-13T00:28:35.139Z,16.48
2023-01-13T00:29:38.329Z,17.13
2023-01-13T00:30:41.470Z,14.85
2023-01-13T00:31:44.814Z,15.02
2023-01-13T00:32:48.041Z,13.90
2023-01-13T00:33:51.428Z,12.80
2023-01-13T00:34:54.859Z,13.82
2023-01-13T00:35:59.983Z,15.23
2023-01-13T00:37:03.190Z,15.60
2023-01-13T00:38:06.309Z,15.43
2023-01-13T00:39:09.602Z,15.73
2023-01-13T00:40:13.367Z,16.85
2023-01-13T00:41:23.088Z,20.50
2023-01-13T00:42:44.979Z,13.05
2023-01-13T00:43:49.487Z,12.40
2023-01-13T00:44:52.953Z,13.63
2023-01-13T00:45:56.442Z,11.32
2023-01-13T00:46:59.657Z,16.88
2023-01-13T00:48:03.303Z,13.35
2023-01-13T00:49:06.894Z,11.55
2023-01-13T00:50:11.206Z,12.65
2023-01-13T00:51:17.888Z,15.52
2023-01-13T00:52:21.051Z,21.30
2023-01-13T00:53:25.212Z,12.15
2023-01-13T00:54:28.340Z,18.20
2023-01-13T00:55:33.075Z,13.68
2023-01-13T00:56:41.012Z,16.20
2023-01-13T00:57:44.459Z,14.27
2023-01-13T00:58:48.788Z,16.95
2023-01-13T00:59:51.976Z,15.52
2023-01-13T01:00:55.233Z,13.98
2023-01-13T01:01:58.542Z,16.80
2023-01-13T01:03:01.827Z,12.40
2023-01-13T01:04:05.497Z,11.10
2023-01-13T01:05:10.216Z,11.73
2023-01-13T01:06:21.308Z,12.55
2023-01-13T01:07:24.461Z,15.82
2023-01-13T01:08:27.741Z,11.05
2023-01-13T01:09:33.581Z,15.65
2023-01-13T01:10:36.796Z,11.05
2023-01-13T01:11:40.394Z,13.48
2023-01-13T01:12:43.596Z,17.15
2023-01-13T01:13:47.566Z,17.75
2023-01-13T01:14:50.752Z,13.65
2023-01-13T01:15:53.932Z,12.95
2023-01-13T01:16:57.177Z,16.17
2023-01-13T01:18:00.424Z,15.23
2023-01-13T01:19:05.154Z,17.15
2023-01-13T01:20:09.609Z,16.38
2023-01-13T01:21:14.019Z,17.13
2023-01-13T01:22:17.158Z,10.73
2023-01-13T01:23:20.372Z,12.80
2023-01-13T01:24:23.604Z,11.90
2023-01-13T01:25:26.871Z,14.55
2023-01-13T01:26:31.538Z,11.70
2023-01-13T01:27:34.921Z,17.30
2023-01-13T01:28:39.189Z,12.50
2023-01-13T01:29:42.340Z,16.63
2023-01-13T01:30:45.517Z,16.88
2023-01-13T01:31:48.771Z,10.75
2023-01-13T01:32:51.958Z,15.30
2023-01-13T01:33:55.773Z,15.05
2023-01-13T01:34:59.016Z,14.15
2023-01-13T01:36:03.660Z,16.67
2023-01-13T01:37:07.073Z,10.27
2023-01-13T01:38:10.396Z,15.43
2023-01-13T01:39:13.573Z,10.18
2023-01-13T01:40:17.301Z,13.52
2023-01-13T01:41:24.169Z,13.65
2023-01-13T01:42:46.189Z,15.23
2023-01-13T01:43:59.592Z,14.48
2023-01-13T01:45:40.009Z,10.57
2023-01-13T01:46:45.129Z,14.45
2023-01-13T01:47:58.662Z,14.07
2023-01-13T01:49:27.437Z,12.80
2023-01-13T01:50:31.205Z,11.05
2023-01-13T01:51:43.910Z,16.48
2023-01-13T01:52:57.588Z,13.75
2023-01-13T01:54:02.761Z,14.55
2023-01-13T01:55:27.950Z,20.95
2023-01-13T01:56:33.631Z,13.20
2023-01-13T01:58:08.684Z,20.00
2023-01-13T01:59:12.709Z,11.98
2023-01-13T02:00:16.598Z,11.48
2023-01-13T02:01:20.460Z,16.00
2023-01-13T02:02:23.898Z,11.63
2023-01-13T02:03:27.189Z,11.85
2023-01-13T02:04:37.916Z,11.10
2023-01-13T02:05:41.400Z,11.57
2023-01-13T02:06:46.881Z,12.63
2023-01-13T02:07:54.474Z,11.15
2023-01-13T02:08:59.792Z,14.63
2023-01-13T02:10:08.643Z,10.90
2023-01-13T02:11:54.104Z,11.68
2023-01-13T02:13:01.408Z,12.02
2023-01-13T02:14:04.593Z,16.20
2023-01-13T02:15:10.892Z,13.88
2023-01-13T02:16:22.748Z,12.75
2023-01-13T02:17:54.591Z,9.43
2023-01-13T02:19:13.935Z,11.20
2023-01-13T02:20:36.939Z,9.68
2023-01-13T02:22:30.840Z,11.30
2023-01-13T02:24:22.082Z,13.82
2023-01-13T02:25:45.758Z,10.85
2023-01-13T02:27:18.541Z,10.70
2023-01-13T02:29:10.500Z,14.18
2023-01-13T02:30:56.606Z,14.60
2023-01-13T02:32:20.328Z,10.30
2023-01-13T02:33:34.486Z,9.25
2023-01-13T02:34:46.540Z,10.18
2023-01-13T02:36:36.104Z,12.32
2023-01-13T02:37:43.803Z,15.13
2023-01-13T02:39:07.586Z,15.13
2023-01-13T02:40:59.442Z,9.73
2023-01-13T02:42:27.574Z,8.68
2023-01-13T02:43:54.851Z,12.00
2023-01-13T02:45:09.624Z,9.32
2023-01-13T02:46:27.549Z,9.18
2023-01-13T02:47:38.004Z,13.57
2023-01-13T02:48:46.123Z,13.40
2023-01-13T02:50:02.558Z,12.82
2023-01-13T02:51:13.942Z,13.30
2023-01-13T02:52:43.856Z,9.32
2023-01-13T02:53:52.612Z,10.13
2023-01-13T02:55:04.474Z,9.68
2023-01-13T02:56:09.998Z,12.10
2023-01-13T02:57:17.314Z,10.80
2023-01-13T02:58:29.065Z,8.68
2023-01-13T02:59:32.833Z,10.95
2023-01-13T03:00:38.045Z,12.35
2023-01-13T03:01:42.781Z,11.68
2023-01-13T03:02:47.774Z,12.52
2023-01-13T03:03:50.900Z,10.93
2023-01-13T03:05:00.188Z,9.38
2023-01-13T03:06:25.918Z,10.60
2023-01-13T03:07:34.847Z,9.63
2023-01-13T03:09:12.233Z,11.07
2023-01-13T03:10:39.494Z,11.10
2023-01-13T03:12:07.641Z,10.00
2023-01-13T03:13:38.387Z,10.77
2023-01-13T03:15:25.412Z,9.90
2023-01-13T03:16:59.363Z,8.52
2023-01-13T03:18:37.964Z,13.25
2023-01-13T03:20:03.637Z,10.10
2023-01-13T03:21:19.469Z,7.75
2023-01-13T03:22:34.561Z,14.45
2023-01-13T03:23:48.080Z,12.60
2023-01-13T03:25:06.421Z,8.20
2023-01-13T03:26:33.885Z,10.43
2023-01-13T03:28:04.453Z,13.25
2023-01-13T03:29:27.906Z,9.43
2023-01-13T03:30:47.726Z,10.30
2023-01-13T03:32:14.535Z,11.50
2023-01-13T03:33:26.347Z,8.15
2023-01-13T03:35:00.679Z,11.10
2023-01-13T03:36:10.200Z,8.57
2023-01-13T03:37:17.757Z,9.82
2023-01-13T03:38:40.670Z,8.27
2023-01-13T03:39:52.408Z,9.88
2023-01-13T03:41:05.366Z,10.20
2023-01-13T03:42:19.035Z,12.10
2023-01-13T03:43:50.322Z,15.68
2023-01-13T03:45:08.292Z,13.30
2023-01-13T03:46:37.483Z,9.57
2023-01-13T03:47:50.810Z,7.35
2023-01-13T03:48:58.755Z,9.32
2023-01-13T03:50:28.363Z,13.63
2023-01-13T03:51:34.926Z,15.23
2023-01-13T03:52:53.295Z,9.73
2023-01-13T03:54:01.351Z,11.20
2023-01-13T03:55:16.004Z,8.13
2023-01-13T03:56:29.045Z,6.82
2023-01-13T03:57:39.589Z,11.93
2023-01-13T03:58:47.821Z,9.45
2023-01-13T03:59:55.486Z,9.45
2023-01-13T04:01:29.347Z,10.73
2023-01-13T04:02:57.840Z,11.75
2023-01-13T04:04:06.239Z,6.97
2023-01-13T04:05:10.957Z,9.52
2023-01-13T04:06:38.295Z,8.63
2023-01-13T04:08:22.066Z,11.68
2023-01-13T04:09:54.499Z,7.68
2023-01-13T04:11:17.198Z,7.97
2023-01-13T04:12:54.200Z,9.27
2023-01-13T04:13:58.268Z,8.68
2023-01-13T04:15:01.537Z,10.98
2023-01-13T04:16:07.869Z,7.15
2023-01-13T04:17:11.739Z,8.05
2023-01-13T04:18:31.279Z,8.60
2023-01-13T04:19:34.673Z,9.38
2023-01-13T04:20:39.891Z,10.25
2023-01-13T04:21:43.017Z,10.45
2023-01-13T04:22:46.318Z,10.30
2023-01-13T04:23:51.592Z,11.02
2023-01-13T04:24:54.694Z,8.85
2023-01-13T04:25:57.894Z,11.48
2023-01-13T04:27:01.171Z,8.43
2023-01-13T04:28:04.729Z,10.80
2023-01-13T04:29:07.885Z,9.15
2023-01-13T04:30:11.817Z,11.30
2023-01-13T04:31:14.975Z,9.02
2023-01-13T04:32:18.582Z,9.55
2023-01-13T04:33:21.795Z,8.52
2023-01-13T04:34:26.854Z,11.15
2023-01-13T04:35:33.024Z,9.80
2023-01-13T04:36:36.189Z,7.82
2023-01-13T04:37:39.425Z,11.82
2023-01-13T04:38:42.758Z,11.82
2023-01-13T04:39:46.615Z,8.70
2023-01-13T04:40:49.898Z,6.22
2023-01-13T04:41:59.309Z,7.65
2023-01-13T04:43:02.782Z,6.80
2023-01-13T04:44:06.074Z,9.70
2023-01-13T04:45:10.224Z,7.30
2023-01-13T04:46:13.637Z,11.23
2023-01-13T04:47:16.886Z,13.07
2023-01-13T04:48:20.117Z,7.95
2023-01-13T04:49:23.548Z,11.70
2023-01-13T04:50:27.297Z,9.07
2023-01-13T04:51:30.527Z,7.97
2023-01-13T04:52:33.852Z,5.82
2023-01-13T04:53:37.082Z,10.10
2023-01-13T04:54:40.214Z,10.25
2023-01-13T04:55:45.268Z,7.25
2023-01-13T04:56:49.010Z,7.10
2023-01-13T04:57:52.673Z,10.30
2023-01-13T04:58:56.007Z,8.15
2023-01-13T04:59:59.263Z,5.38
2023-01-13T05:01:02.325Z,7.45
2023-01-13T05:02:08.573Z,9.63
2023-01-13T05:03:11.974Z,5.97
2023-01-13T05:04:15.644Z,9.82
2023-01-13T05:05:19.389Z,6.72
2023-01-13T05:06:22.791Z,7.20
2023-01-13T05:07:26.126Z,7.38
2023-01-13T05:08:29.267Z,5.75
2023-01-13T05:09:32.455Z,6.40
2023-01-13T05:10:35.601Z,6.10
2023-01-13T05:11:57.477Z,7.30
2023-01-13T05:13:19.276Z,5.38
2023-01-13T05:14:40.767Z,9.55
2023-01-13T05:16:22.165Z,5.82
2023-01-13T05:17:26.224Z,11.05
2023-01-13T05:18:30.996Z,10.10
2023-01-13T05:19:39.268Z,8.45
2023-01-13T05:20:42.437Z,6.05
2023-01-13T05:22:04.286Z,7.55
2023-01-13T05:23:26.336Z,7.60
2023-01-13T05:24:48.279Z,8.60
2023-01-13T05:25:51.457Z,9.18
2023-01-13T05:26:54.682Z,5.85
2023-01-13T05:28:01.533Z,6.35
2023-01-13T05:29:04.645Z,6.38
2023-01-13T05:30:09.207Z,5.95
2023-01-13T05:31:14.951Z,10.30
2023-01-13T05:32:18.332Z,7.18
2023-01-13T05:33:21.566Z,6.82
2023-01-13T05:34:24.625Z,9.05
2023-01-13T05:35:29.265Z,8.95
2023-01-13T05:36:32.355Z,12.02
2023-01-13T05:37:35.961Z,7.72
2023-01-13T05:38:39.108Z,10.13
2023-01-13T05:40:01.620Z,9.20
2023-01-13T05:41:23.555Z,12.07
2023-01-13T05:42:45.520Z,14.77
2023-01-13T05:43:48.807Z,17.65
2023-01-13T05:44:51.905Z,13.20
2023-01-13T05:46:09.259Z,12.48
2023-01-13T05:47:12.522Z,11.63
2023-01-13T05:48:16.843Z,9.90
2023-01-13T05:49:19.903Z,11.68
2023-01-13T05:50:23.189Z,8.25
2023-01-13T05:51:26.513Z,7.93
2023-01-13T05:52:29.864Z,13.70
2023-01-13T05:53:34.482Z,9.43
2023-01-13T05:54:37.563Z,10.55
2023-01-13T05:55:42.441Z,9.32
2023-01-13T05:56:45.636Z,12.05
2023-01-13T05:57:48.934Z,12.52
2023-01-13T05:58:52.071Z,10.02
2023-01-13T05:59:55.340Z,8.80
2023-01-13T06:01:07.225Z,8.40
2023-01-13T06:02:10.534Z,8.63
2023-01-13T06:03:14.338Z,10.32
2023-01-13T06:04:17.686Z,9.50
2023-01-13T06:05:20.838Z,11.20
2023-01-13T06:06:24.443Z,9.75
2023-01-13T06:07:27.646Z,8.35
2023-01-13T06:08:31.899Z,9.52
2023-01-13T06:09:35.079Z,7.80
2023-01-13T06:10:38.390Z,10.35
2023-01-13T06:11:41.501Z,7.72
2023-01-13T06:12:44.797Z,11.27
2023-01-13T06:13:47.874Z,10.23
2023-01-13T06:14:51.009Z,11.73
2023-01-13T06:16:01.675Z,9.98
2023-01-13T06:17:04.879Z,8.02
2023-01-13T06:18:08.099Z,9.68
2023-01-13T06:19:13.285Z,9.43
2023-01-13T06:20:17.631Z,10.98
2023-01-13T06:21:20.824Z,9.13
2023-01-13T06:22:33.019Z,8.60
2023-01-13T06:23:38.674Z,7.88
2023-01-13T06:24:42.240Z,7.60
2023-01-13T06:25:55.522Z,6.20
2023-01-13T06:26:58.827Z,4.90
2023-01-13T06:28:03.133Z,8.60
2023-01-13T06:29:06.713Z,9.70
2023-01-13T06:30:11.006Z,8.55
2023-01-13T06:31:14.403Z,9.15
2023-01-13T06:32:29.518Z,8.52
2023-01-13T06:33:49.565Z,8.80
2023-01-13T06:34:58.940Z,8.75
2023-01-13T06:36:12.300Z,9.75
2023-01-13T06:37:19.990Z,7.00
2023-01-13T06:38:27.007Z,9.70
2023-01-13T06:39:31.809Z,7.45
2023-01-13T06:40:35.865Z,8.60
2023-01-13T06:41:57.737Z,7.15
2023-01-13T06:43:16.960Z,6.05
2023-01-13T06:44:23.166Z,5.85
2023-01-13T06:45:28.696Z,7.97
2023-01-13T06:46:32.153Z,6.32
2023-01-13T06:47:35.291Z,6.60
2023-01-13T06:48:38.455Z,10.32
2023-01-13T06:49:41.692Z,5.72
2023-01-13T06:50:45.245Z,6.70
2023-01-13T06:51:48.762Z,7.53
2023-01-13T06:52:51.989Z,5.72
2023-01-13T06:53:55.371Z,5.07
2023-01-13T06:54:58.595Z,5.50
2023-01-13T06:56:01.718Z,6.82
2023-01-13T06:57:04.954Z,7.43
2023-01-13T06:58:08.548Z,7.68
2023-01-13T06:59:11.924Z,6.05
2023-01-13T07:00:15.950Z,5.00
2023-01-13T07:01:19.298Z,10.63
2023-01-13T07:02:22.706Z,5.38
2023-01-13T07:03:26.004Z,6.38
2023-01-13T07:04:29.118Z,5.20
2023-01-13T07:05:32.577Z,4.88
2023-01-13T07:06:35.695Z,6.70
2023-01-13T07:07:39.365Z,5.97
2023-01-13T07:08:42.472Z,7.15
2023-01-13T07:09:45.578Z,5.68
2023-01-13T07:10:48.826Z,9.13
2023-01-13T07:11:52.796Z,7.10
2023-01-13T07:13:14.394Z,9.57
2023-01-13T07:14:36.048Z,7.78
2023-01-13T07:15:39.156Z,6.72
2023-01-13T07:16:44.606Z,5.82
2023-01-13T07:17:48.185Z,8.27
2023-01-13T07:18:51.388Z,7.78
2023-01-13T07:19:54.770Z,6.53
2023-01-13T07:21:03.752Z,4.85
2023-01-13T07:22:06.942Z,9.55
2023-01-13T07:23:10.303Z,9.40
2023-01-13T07:24:13.631Z,7.57
2023-01-13T07:25:16.840Z,9.32
2023-01-13T07:26:19.909Z,7.63
2023-01-13T07:27:23.022Z,7.18
2023-01-13T07:28:28.224Z,6.95
2023-01-13T07:29:31.342Z,5.10
2023-01-13T07:30:34.462Z,5.57
2023-01-13T07:31:39.164Z,7.00
2023-01-13T07:32:42.470Z,8.02
2023-01-13T07:33:45.723Z,10.13
2023-01-13T07:34:49.036Z,9.57
2023-01-13T07:36:03.974Z,12.40
2023-01-13T07:37:07.332Z,9.18
2023-01-13T07:38:10.958Z,8.80
2023-01-13T07:39:14.172Z,5.28
2023-01-13T07:40:17.747Z,6.80
2023-01-13T07:41:39.477Z,8.25
2023-01-13T07:43:01.062Z,7.13
2023-01-13T07:44:07.577Z,9.32
2023-01-13T07:45:12.450Z,8.95
2023-01-13T07:46:16.363Z,7.95
2023-01-13T07:47:23.444Z,8.35
2023-01-13T07:48:27.951Z,8.20
2023-01-13T07:49:31.120Z,10.52
2023-01-13T07:50:34.356Z,7.97
2023-01-13T07:51:39.296Z,6.80
2023-01-13T07:52:42.378Z,9.50
2023-01-13T07:53:45.516Z,5.88
2023-01-13T07:54:49.773Z,6.53
2023-01-13T07:55:57.238Z,13.10
2023-01-13T07:57:00.405Z,10.52
2023-01-13T07:58:03.486Z,4.35
2023-01-13T07:59:06.651Z,6.13
2023-01-13T08:00:12.870Z,4.93
2023-01-13T08:01:19.876Z,10.55
2023-01-13T08:02:23.311Z,8.65
2023-01-13T08:03:27.537Z,6.85
2023-01-13T08:04:30.749Z,10.25
2023-01-13T08:05:36.396Z,7.32
2023-01-13T08:06:42.545Z,12.75
2023-01-13T08:07:45.769Z,5.15
2023-01-13T08:08:48.914Z,8.18
2023-01-13T08:09:52.169Z,7.03
2023-01-13T08:10:58.466Z,7.07
2023-01-13T08:12:19.919Z,5.13
2023-01-13T08:13:23.159Z,4.00
2023-01-13T08:14:26.403Z,7.28
2023-01-13T08:15:31.608Z,6.90
2023-01-13T08:16:35.110Z,4.65
2023-01-13T08:17:38.345Z,6.28
2023-01-13T08:18:42.321Z,5.57
2023-01-13T08:19:45.442Z,6.07
2023-01-13T08:20:50.164Z,5.63
2023-01-13T08:21:53.281Z,8.90
2023-01-13T08:22:59.382Z,10.45
2023-01-13T08:24:02.547Z,6.55
2023-01-13T08:25:06.482Z,6.35
2023-01-13T08:26:16.411Z,7.40
2023-01-13T08:27:20.603Z,8.48
2023-01-13T08:28:24.366Z,7.05
2023-01-13T08:29:27.433Z,6.40
2023-01-13T08:30:31.112Z,8.43
2023-01-13T08:31:34.239Z,6.43
2023-01-13T08:32:37.413Z,5.80
2023-01-13T08:33:41.284Z,7.63
2023-01-13T08:34:45.068Z,9.93
2023-01-13T08:35:49.201Z,10.63
2023-01-13T08:36:52.409Z,11.30
2023-01-13T08:37:55.622Z,7.97
2023-01-13T08:38:58.851Z,7.72
2023-01-13T08:40:01.945Z,10.02
2023-01-13T08:41:14.676Z,10.75
2023-01-13T08:42:17.788Z,9.38
2023-01-13T08:43:21.035Z,6.07
2023-01-13T08:44:28.603Z,9.35
2023-01-13T08:45:31.897Z,7.10
2023-01-13T08:46:36.204Z,8.75
2023-01-13T08:47:39.382Z,6.35
2023-01-13T08:48:42.506Z,5.70
2023-01-13T08:49:45.868Z,11.40
2023-01-13T08:50:49.008Z,6.50
2023-01-13T08:51:53.810Z,6.05
2023-01-13T08:52:57.381Z,9.20
2023-01-13T08:54:00.760Z,5.85
2023-01-13T08:55:04.912Z,8.23
2023-01-13T08:56:13.210Z,6.00
2023-01-13T08:57:19.475Z,8.90
2023-01-13T08:58:23.357Z,7.28
2023-01-13T08:59:26.730Z,6.40
2023-01-13T09:00:29.893Z,7.05
2023-01-13T09:01:34.262Z,7.10
2023-01-13T09:02:38.791Z,8.52
2023-01-13T09:03:42.010Z,7.38
2023-01-13T09:04:46.249Z,10.05
2023-01-13T09:05:49.530Z,7.88
2023-01-13T09:06:52.967Z,5.80
2023-01-13T09:07:56.131Z,11.18
2023-01-13T09:09:00.617Z,6.45
2023-01-13T09:10:07.211Z,6.60
2023-01-13T09:11:45.038Z,5.50
2023-01-13T09:13:06.555Z,8.57
2023-01-13T09:14:09.685Z,4.80
2023-01-13T09:15:13.637Z,5.65
2023-01-13T09:16:16.805Z,5.95
2023-01-13T09:17:20.103Z,6.97
2023-01-13T09:18:23.359Z,7.65
2023-01-13T09:19:27.915Z,11.57
2023-01-13T09:20:31.006Z,7.90
2023-01-13T09:21:34.262Z,7.85
2023-01-13T09:22:37.741Z,7.82
2023-01-13T09:23:40.926Z,7.80
2023-01-13T09:24:45.486Z,11.02
2023-01-13T09:25:49.326Z,4.70
2023-01-13T09:26:53.300Z,7.28
2023-01-13T09:27:57.519Z,7.00
2023-01-13T09:29:00.791Z,7.28
2023-01-13T09:30:05.651Z,8.82
2023-01-13T09:31:09.157Z,5.88
2023-01-13T09:32:14.557Z,5.80
2023-01-13T09:33:36.181Z,10.57
2023-01-13T09:34:58.767Z,7.53
2023-01-13T09:36:02.224Z,5.78
2023-01-13T09:37:08.165Z,6.28
2023-01-13T09:38:11.370Z,8.13
2023-01-13T09:39:15.189Z,9.15
2023-01-13T09:40:22.737Z,6.70
2023-01-13T09:41:47.777Z,8.95
2023-01-13T09:43:21.111Z,7.97
2023-01-13T09:44:58.060Z,10.60
2023-01-13T09:46:40.676Z,7.95
2023-01-13T09:48:24.591Z,7.75
2023-01-13T09:49:39.644Z,7.95
2023-01-13T09:50:54.703Z,7.70
2023-01-13T09:52:20.107Z,7.80
2023-01-13T09:53:36.900Z,9.35
2023-01-13T09:54:58.651Z,7.28
2023-01-13T09:56:02.229Z,7.10
2023-01-13T09:57:15.147Z,5.72
2023-01-13T09:58:19.409Z,5.30
2023-01-13T09:59:23.362Z,7.93
2023-01-13T10:00:39.401Z,5.30
2023-01-13T10:01:59.519Z,7.50
2023-01-13T10:03:31.125Z,6.30
2023-01-13T10:04:34.495Z,5.43
2023-01-13T10:05:57.758Z,5.43
2023-01-13T10:07:05.827Z,9.43
2023-01-13T10:08:26.735Z,6.50
2023-01-13T10:10:53.791Z,5.50
2023-01-13T10:12:18.397Z,5.65
2023-01-13T10:13:24.133Z,5.30
2023-01-13T10:14:50.112Z,7.68
2023-01-13T10:16:19.033Z,6.05
2023-01-13T10:17:40.159Z,8.30
2023-01-13T10:19:04.974Z,12.45
2023-01-13T10:20:33.325Z,9.82
2023-01-13T10:22:32.924Z,6.13
2023-01-13T10:24:13.589Z,6.13
2023-01-13T10:25:45.555Z,5.80
2023-01-13T10:26:57.289Z,6.78
2023-01-13T10:28:11.289Z,8.05
2023-01-13T10:29:28.176Z,8.25
2023-01-13T10:30:42.069Z,9.13
2023-01-13T10:31:45.224Z,6.70
2023-01-13T10:32:52.190Z,5.68
2023-01-13T10:34:01.687Z,6.82
2023-01-13T10:35:06.203Z,8.70
2023-01-13T10:36:11.995Z,6.78
2023-01-13T10:37:26.465Z,5.72
2023-01-13T10:39:10.121Z,5.35
2023-01-13T10:40:18.492Z,8.30
2023-01-13T10:41:27.735Z,7.30
2023-01-13T10:42:31.192Z,6.78
2023-01-13T10:43:34.324Z,4.32
2023-01-13T10:44:54.382Z,8.20
2023-01-13T10:46:11.019Z,8.90
2023-01-13T10:47:24.986Z,8.48
2023-01-13T10:48:41.837Z,6.90
2023-01-13T10:50:14.048Z,9.45
2023-01-13T10:51:37.987Z,6.47
2023-01-13T10:52:57.605Z,8.32
2023-01-13T10:54:02.831Z,9.77
2023-01-13T10:55:25.058Z,7.35
2023-01-13T10:56:33.399Z,8.65
2023-01-13T10:57:37.065Z,6.78
2023-01-13T10:58:40.187Z,8.13
2023-01-13T10:59:44.132Z,8.88
2023-01-13T11:00:49.352Z,10.57
2023-01-13T11:02:25.340Z,8.93
2023-01-13T11:03:42.988Z,7.05
2023-01-13T11:04:55.443Z,6.97
2023-01-13T11:06:00.433Z,8.90
2023-01-13T11:07:16.824Z,7.13
2023-01-13T11:08:30.371Z,8.88
2023-01-13T11:09:34.214Z,11.70
2023-01-13T11:10:48.134Z,7.38
2023-01-13T11:11:55.974Z,6.38
2023-01-13T11:13:14.787Z,10.07
2023-01-13T11:14:42.834Z,8.68
2023-01-13T11:16:15.598Z,10.68
2023-01-13T11:18:00.538Z,7.90
2023-01-13T11:19:14.189Z,8.32
2023-01-13T11:20:31.859Z,10.10
2023-01-13T11:22:12.538Z,7.65
2023-01-13T11:23:48.117Z,11.50
2023-01-13T11:24:58.870Z,10.30
2023-01-13T11:27:52.456Z,10.05
2023-01-13T11:29:11.315Z,6.60
2023-01-13T11:30:17.237Z,7.72
2023-01-13T11:31:29.673Z,6.20
2023-01-13T11:32:56.561Z,11.70
2023-01-13T11:34:36.523Z,6.93
2023-01-13T11:35:58.791Z,6.50
2023-01-13T11:37:09.935Z,7.90
2023-01-13T11:38:31.776Z,7.72
2023-01-13T11:39:58.119Z,8.82
2023-01-13T11:41:39.627Z,6.28
2023-01-13T11:43:18.776Z,6.20
2023-01-13T11:44:49.840Z,9.60
2023-01-13T11:46:59.775Z,6.45
2023-01-13T11:48:04.161Z,8.20
2023-01-13T11:49:10.632Z,7.82
2023-01-13T11:50:41.624Z,11.68
2023-01-13T11:53:30.955Z,8.60
2023-01-13T11:55:11.897Z,8.98
2023-01-13T11:57:15.399Z,9.75
2023-01-13T11:59:14.746Z,8.05
2023-01-13T12:00:31.598Z,8.50
2023-01-13T12:02:15.549Z,6.93
2023-01-13T12:03:38.521Z,8.13
2023-01-13T12:05:17.892Z,6.15
2023-01-13T12:06:44.533Z,9.13
2023-01-13T12:08:03.197Z,9.27
2023-01-13T12:10:05.073Z,9.77
2023-01-13T12:11:15.408Z,7.80
2023-01-13T12:12:51.732Z,8.43
2023-01-13T12:14:25.655Z,10.90
2023-01-13T12:15:48.337Z,9.80
2023-01-13T12:16:51.809Z,8.07
2023-01-13T12:18:45.116Z,8.90
2023-01-13T12:19:51.173Z,13.55
2023-01-13T12:21:20.987Z,13.15
2023-01-13T12:22:30.168Z,5.70
2023-01-13T12:23:36.960Z,6.85
2023-01-13T12:25:05.293Z,8.35
2023-01-13T12:26:18.977Z,8.15
2023-01-13T12:27:47.445Z,9.07
2023-01-13T12:29:01.095Z,9.10
2023-01-13T12:30:31.499Z,16.52
2023-01-13T12:31:38.900Z,10.85
2023-01-13T12:32:42.799Z,9.43
2023-01-13T12:34:08.796Z,8.48
2023-01-13T12:35:36.140Z,12.85
2023-01-13T12:36:51.024Z,10.43
2023-01-13T12:38:18.063Z,9.93
2023-01-13T12:39:52.600Z,11.20
2023-01-13T12:41:26.115Z,11.73
2023-01-13T12:43:11.200Z,11.07
2023-01-13T12:44:17.291Z,8.52
2023-01-13T12:45:28.636Z,14.93
2023-01-13T12:46:40.688Z,7.00
2023-01-13T12:47:48.703Z,8.23
2023-01-13T12:48:54.937Z,6.55
2023-01-13T12:50:26.776Z,8.50
2023-01-13T12:51:36.690Z,9.15
2023-01-13T12:52:45.933Z,9.90
2023-01-13T12:53:49.116Z,9.13
2023-01-13T12:54:53.391Z,8.32
2023-01-13T12:56:44.665Z,9.35
2023-01-13T12:59:21.498Z,9.75
2023-01-13T13:00:42.029Z,9.32
2023-01-13T13:01:48.370Z,10.13
2023-01-13T13:03:12.670Z,5.93
2023-01-13T13:04:41.380Z,7.25
2023-01-13T13:06:23.093Z,6.70
2023-01-13T13:07:41.593Z,6.60
2023-01-13T13:09:17.565Z,7.63
2023-01-13T13:11:01.603Z,11.15
2023-01-13T13:13:13.755Z,12.05
2023-01-13T13:14:39.674Z,7.10
2023-01-13T13:15:43.706Z,7.07
2023-01-13T13:16:53.381Z,8.10
2023-01-13T13:17:59.761Z,6.68
2023-01-13T13:19:21.427Z,10.93
2023-01-13T13:21:00.734Z,11.02
2023-01-13T13:22:22.689Z,7.32
2023-01-13T13:23:37.807Z,9.82
2023-01-13T13:24:48.669Z,9.07
2023-01-13T13:27:55.375Z,7.35
2023-01-13T13:29:19.084Z,7.40
2023-01-13T13:30:36.704Z,8.95
2023-01-13T13:32:06.631Z,7.78
2023-01-13T13:33:29.789Z,5.85
2023-01-13T13:35:36.378Z,7.18
2023-01-13T13:37:00.429Z,6.72
2023-01-13T13:38:50.863Z,7.45
2023-01-13T13:40:14.159Z,8.30
2023-01-13T13:41:43.134Z,9.32
2023-01-13T13:43:15.809Z,6.93
2023-01-13T13:44:48.221Z,9.95
2023-01-13T13:46:11.220Z,6.18
2023-01-13T13:47:14.720Z,8.35
2023-01-13T13:48:34.342Z,6.78
2023-01-13T13:49:52.953Z,8.07
2023-01-13T13:51:04.926Z,6.35
2023-01-13T13:52:17.420Z,6.05
2023-01-13T13:53:21.115Z,7.90
2023-01-13T13:54:24.347Z,5.45
2023-01-13T13:55:29.452Z,9.75
2023-01-13T13:56:40.717Z,6.65
2023-01-13T13:57:49.670Z,5.45
2023-01-13T13:58:53.301Z,6.53
2023-01-13T14:00:00.491Z,8.45
2023-01-13T14:01:05.452Z,6.53
2023-01-13T14:02:34.590Z,5.15
2023-01-13T14:03:40.159Z,7.22
2023-01-13T14:04:43.694Z,13.25
2023-01-13T14:06:01.126Z,6.78
2023-01-13T14:07:22.096Z,9.65
2023-01-13T14:08:31.513Z,5.60
2023-01-13T14:09:45.152Z,8.35
2023-01-13T14:10:48.692Z,6.05
2023-01-13T14:12:15.423Z,6.47
2023-01-13T14:13:31.822Z,7.30
2023-01-13T14:14:35.195Z,7.90
2023-01-13T14:15:39.890Z,7.47
2023-01-13T14:16:43.328Z,11.23
2023-01-13T14:17:46.992Z,8.13
2023-01-13T14:18:50.251Z,8.82
2023-01-13T14:20:01.181Z,7.50
2023-01-13T14:21:18.364Z,11.38
2023-01-13T14:22:22.225Z,7.50
2023-01-13T14:23:32.479Z,9.38
2023-01-13T14:24:47.809Z,10.98
2023-01-13T14:25:52.661Z,8.55
2023-01-13T14:27:16.300Z,8.60
2023-01-13T14:28:28.271Z,5.88
2023-01-13T14:29:31.951Z,7.10
2023-01-13T14:30:35.721Z,5.50
2023-01-13T14:31:39.818Z,7.30
2023-01-13T14:32:43.301Z,13.35
2023-01-13T14:33:51.802Z,10.15
2023-01-13T14:34:55.128Z,8.25
2023-01-13T14:36:23.288Z,7.18
2023-01-13T14:37:42.047Z,10.23
2023-01-13T14:39:02.884Z,7.68
2023-01-13T14:41:27.974Z,8.82
2023-01-13T14:42:35.474Z,5.90
2023-01-13T14:43:47.483Z,9.02
2023-01-13T14:44:51.626Z,6.22
2023-01-13T14:46:03.943Z,11.70
2023-01-13T14:47:29.119Z,7.85
2023-01-13T14:48:37.707Z,6.93
2023-01-13T14:49:51.646Z,10.38
2023-01-13T14:50:54.877Z,6.60
2023-01-13T14:52:20.200Z,9.15
2023-01-13T14:53:46.498Z,6.82
2023-01-13T14:55:27.552Z,7.55
2023-01-13T14:56:44.855Z,6.97
2023-01-13T14:57:48.498Z,5.22
2023-01-13T14:58:51.639Z,8.07
2023-01-13T15:00:15.460Z,5.60
2023-01-13T15:01:36.473Z,9.98
2023-01-13T15:02:43.616Z,6.30
2023-01-13T15:03:51.000Z,8.25
2023-01-13T15:04:54.477Z,9.55
2023-01-13T15:05:57.976Z,5.97
2023-01-13T15:07:03.086Z,9.38
2023-01-13T15:08:12.334Z,12.40
2023-01-13T15:09:38.187Z,8.82
2023-01-13T15:11:16.008Z,7.15
2023-01-13T15:12:35.893Z,7.03
2023-01-13T15:13:53.566Z,6.65
2023-01-13T15:14:57.177Z,6.82
2023-01-13T15:16:08.354Z,10.40
2023-01-13T15:17:17.566Z,8.23
2023-01-13T15:18:20.694Z,8.02
2023-01-13T15:19:23.912Z,8.80
2023-01-13T15:20:27.824Z,8.50
2023-01-13T15:21:31.031Z,9.40
2023-01-13T15:22:34.105Z,11.25
2023-01-13T15:23:39.971Z,8.43
2023-01-13T15:24:43.143Z,12.65
2023-01-13T15:25:47.347Z,10.93
2023-01-13T15:26:50.873Z,9.32
2023-01-13T15:27:54.342Z,12.68
2023-01-13T15:28:59.320Z,5.55
2023-01-13T15:30:04.771Z,7.32
2023-01-13T15:31:09.524Z,10.70
2023-01-13T15:32:19.813Z,8.30
2023-01-13T15:33:23.580Z,9.38
2023-01-13T15:34:26.762Z,6.80
2023-01-13T15:35:30.249Z,7.82
2023-01-13T15:36:36.904Z,7.18
2023-01-13T15:37:40.888Z,6.07
2023-01-13T15:38:44.160Z,9.95
2023-01-13T15:39:47.539Z,10.07
2023-01-13T15:40:52.447Z,9.48
2023-01-13T15:42:15.168Z,7.20
2023-01-13T15:43:40.615Z,6.70
2023-01-13T15:45:02.241Z,9.90
2023-01-13T15:46:33.747Z,7.28
2023-01-13T15:47:36.988Z,7.22
2023-01-13T15:48:40.201Z,11.50
2023-01-13T15:49:45.220Z,9.02
2023-01-13T15:50:48.613Z,10.45
2023-01-13T15:51:52.329Z,10.35
2023-01-13T15:52:55.559Z,8.10